createdAt,value
2018-11-29T00:00:40.142Z,22.53
2018-11-29T00:03:09.810Z,21.80
2018-11-29T00:05:38.961Z,19.93
2018-11-29T00:08:07.461Z,21.97
2018-11-29T00:10:35.914Z,22.50
2018-11-29T00:13:04.798Z,21.80
2018-11-29T00:15:33.252Z,20.53
2018-11-29T00:18:01.812Z,23.27
2018-11-29T00:20:30.253Z,22.30
2018-11-29T00:22:59.405Z,22.40
2018-11-29T00:25:27.845Z,20.90
2018-11-29T00:27:56.272Z,22.40
2018-11-29T00:30:25.632Z,21.13
2018-11-29T00:32:55.165Z,22.10
2018-11-29T00:35:23.817Z,21.27
2018-11-29T00:37:52.640Z,21.13
2018-11-29T00:40:22.360Z,22.43
2018-11-29T00:42:51.557Z,20.97
2018-11-29T00:45:21.068Z,21.87
2018-11-29T00:47:49.712Z,20.97
2018-11-29T00:50:18.780Z,20.70
2018-11-29T00:52:48.155Z,19.97
2018-11-29T00:55:18.812Z,19.67
2018-11-29T00:57:47.995Z,20.33
2018-11-29T01:00:22.382Z,20.33
2018-11-29T01:02:51.076Z,20.63
2018-11-29T01:05:49.949Z,20.30
2018-11-29T01:08:18.402Z,20.63
2018-11-29T01:10:46.874Z,18.43
2018-11-29T01:13:15.293Z,18.90
2018-11-29T01:15:44.048Z,20.80
2018-11-29T01:18:12.909Z,18.40
2018-11-29T01:20:41.289Z,18.70
2018-11-29T01:23:09.749Z,19.43
2018-11-29T01:25:38.275Z,19.50
2018-11-29T01:28:06.751Z,18.60
2018-11-29T01:30:35.132Z,21.10
2018-11-29T01:33:04.112Z,19.53
2018-11-29T01:35:32.642Z,19.80
2018-11-29T01:38:01.105Z,18.97
2018-11-29T01:40:30.295Z,18.90
2018-11-29T01:42:58.880Z,17.00
2018-11-29T01:45:27.387Z,19.63
2018-11-29T01:47:56.436Z,18.27
2018-11-29T01:50:25.397Z,19.27
2018-11-29T01:52:53.881Z,18.67
2018-11-29T01:55:23.334Z,19.33
2018-11-29T01:57:51.755Z,18.17
2018-11-29T02:00:20.648Z,18.67
2018-11-29T02:02:50.522Z,19.13
2018-11-29T02:05:19.129Z,21.23
2018-11-29T02:07:48.486Z,20.10
2018-11-29T02:10:26.779Z,19.43
2018-11-29T02:12:55.839Z,18.57
2018-11-29T02:15:24.521Z,20.10
2018-11-29T02:17:53.014Z,18.73
2018-11-29T02:20:21.463Z,18.23
2018-11-29T02:22:49.941Z,19.83
2018-11-29T02:25:18.792Z,19.13
2018-11-29T02:27:47.315Z,19.63
2018-11-29T02:30:18.187Z,19.47
2018-11-29T02:32:46.814Z,18.93
2018-11-29T02:35:15.267Z,19.73
2018-11-29T02:37:43.713Z,19.57
2018-11-29T02:40:13.193Z,18.80
2018-11-29T02:42:41.835Z,19.67
2018-11-29T02:45:13.043Z,19.93
2018-11-29T02:47:41.590Z,17.83
2018-11-29T02:50:11.982Z,18.93
2018-11-29T02:52:40.403Z,20.20
2018-11-29T02:55:10.455Z,19.47
2018-11-29T02:57:39.458Z,19.27
2018-11-29T03:00:17.790Z,20.43
2018-11-29T03:02:46.237Z,19.13
2018-11-29T03:05:14.856Z,18.83
2018-11-29T03:07:43.514Z,18.87
2018-11-29T03:10:13.732Z,19.50
2018-11-29T03:12:42.903Z,19.27
2018-11-29T03:15:12.558Z,19.47
2018-11-29T03:17:41.000Z,19.87
2018-11-29T03:20:10.697Z,18.13
2018-11-29T03:22:39.524Z,20.30
2018-11-29T03:25:09.438Z,19.27
2018-11-29T03:27:37.931Z,19.33
2018-11-29T03:30:08.626Z,19.60
2018-11-29T03:32:37.073Z,19.00
2018-11-29T03:35:05.686Z,19.40
2018-11-29T03:37:34.181Z,19.03
2018-11-29T03:40:02.753Z,19.37
2018-11-29T03:42:31.217Z,19.93
2018-11-29T03:44:59.825Z,19.93
2018-11-29T03:47:28.306Z,19.53
2018-11-29T03:49:57.354Z,19.37
2018-11-29T03:52:25.859Z,18.77
2018-11-29T03:54:54.277Z,19.07
2018-11-29T03:57:22.838Z,18.47
2018-11-29T03:59:51.401Z,21.80
2018-11-29T04:02:19.789Z,18.70
2018-11-29T04:04:48.612Z,19.83
2018-11-29T04:07:17.396Z,20.77
2018-11-29T04:09:45.989Z,19.67
2018-11-29T04:12:14.398Z,19.17
2018-11-29T04:14:42.807Z,20.70
2018-11-29T04:17:11.254Z,20.23
2018-11-29T04:19:39.648Z,20.83
2018-11-29T04:22:08.867Z,18.80
2018-11-29T04:24:37.358Z,20.10
2018-11-29T04:27:06.077Z,19.53
2018-11-29T04:29:34.525Z,21.30
2018-11-29T04:32:02.933Z,19.57
2018-11-29T04:34:31.334Z,18.73
2018-11-29T04:36:59.794Z,19.90
2018-11-29T04:39:28.275Z,20.27
2018-11-29T04:41:56.659Z,21.30
2018-11-29T04:44:25.273Z,20.10
2018-11-29T04:46:53.793Z,20.13
2018-11-29T04:49:22.295Z,19.00
2018-11-29T04:51:51.038Z,19.83
2018-11-29T04:54:19.865Z,19.90
2018-11-29T04:56:48.569Z,19.10
2018-11-29T04:59:17.028Z,18.90
2018-11-29T05:01:45.920Z,18.70
2018-11-29T05:04:14.349Z,19.43
2018-11-29T05:06:42.731Z,19.10
2018-11-29T05:09:11.148Z,19.73
2018-11-29T05:11:39.535Z,19.67
2018-11-29T05:14:08.017Z,19.33
2018-11-29T05:16:36.414Z,18.30
2018-11-29T05:19:04.994Z,19.70
2018-11-29T05:21:33.521Z,18.27
2018-11-29T05:24:02.408Z,19.40
2018-11-29T05:26:30.867Z,18.50
2018-11-29T05:28:59.747Z,19.30
2018-11-29T05:31:28.318Z,19.30
2018-11-29T05:33:56.705Z,18.80
2018-11-29T05:36:26.311Z,19.57
2018-11-29T05:38:54.931Z,19.43
2018-11-29T05:41:23.569Z,18.20
2018-11-29T05:43:52.123Z,18.10
2018-11-29T05:46:20.550Z,18.07
2018-11-29T05:49:19.832Z,18.37
2018-11-29T05:51:48.353Z,18.43
2018-11-29T05:54:19.278Z,18.10
2018-11-29T05:56:47.945Z,17.87
2018-11-29T05:59:16.422Z,18.23
2018-11-29T06:01:45.386Z,19.60
2018-11-29T06:04:13.825Z,18.17
2018-11-29T06:06:42.711Z,18.70
2018-11-29T06:09:11.328Z,19.23
2018-11-29T06:11:40.342Z,19.10
2018-11-29T06:14:09.027Z,17.57
2018-11-29T06:16:38.153Z,17.23
2018-11-29T06:19:08.719Z,17.47
2018-11-29T06:21:37.388Z,17.20
2018-11-29T06:24:06.044Z,16.80
2018-11-29T06:26:34.647Z,18.83
2018-11-29T06:29:03.176Z,18.30
2018-11-29T06:31:31.692Z,18.23
2018-11-29T06:34:00.158Z,18.60
2018-11-29T06:36:29.552Z,19.43
2018-11-29T06:38:58.082Z,19.73
2018-11-29T06:41:26.625Z,17.37
2018-11-29T06:43:55.740Z,18.00
2018-11-29T06:46:24.188Z,17.73
2018-11-29T06:48:52.608Z,17.30
2018-11-29T06:51:21.023Z,18.03
2018-11-29T06:53:54.768Z,17.70
2018-11-29T06:56:23.289Z,20.10
2018-11-29T06:58:51.913Z,17.67
2018-11-29T07:01:20.388Z,18.43
2018-11-29T07:03:48.902Z,19.30
2018-11-29T07:06:17.472Z,17.53
2018-11-29T07:08:46.019Z,18.70
2018-11-29T07:11:14.438Z,20.67
2018-11-29T07:13:42.832Z,18.33
2018-11-29T07:16:11.317Z,19.23
2018-11-29T07:18:39.764Z,19.10
2018-11-29T07:21:19.342Z,19.97
2018-11-29T07:23:48.024Z,18.33
2018-11-29T07:26:16.463Z,18.07
2018-11-29T07:28:45.089Z,18.67
2018-11-29T07:31:13.527Z,19.07
2018-11-29T07:33:42.028Z,19.50
2018-11-29T07:36:10.594Z,18.20
2018-11-29T07:38:39.138Z,19.43
2018-11-29T07:41:07.738Z,18.83
2018-11-29T07:43:36.216Z,17.93
2018-11-29T07:46:04.686Z,17.77
2018-11-29T07:48:33.222Z,18.33
2018-11-29T07:51:01.773Z,16.93
2018-11-29T07:53:30.185Z,17.93
2018-11-29T07:55:58.853Z,18.33
2018-11-29T07:58:27.618Z,17.87
2018-11-29T08:00:56.146Z,16.87
2018-11-29T08:03:24.533Z,17.53
2018-11-29T08:05:52.990Z,16.40
2018-11-29T08:08:21.557Z,18.40
2018-11-29T08:10:49.988Z,18.50
2018-11-29T08:13:18.468Z,17.40
2018-11-29T08:15:47.113Z,18.73
2018-11-29T08:18:15.513Z,17.63
2018-11-29T08:20:43.967Z,18.63
2018-11-29T08:23:12.389Z,18.23
2018-11-29T08:25:40.939Z,18.03
2018-11-29T08:28:09.310Z,17.80
2018-11-29T08:30:37.685Z,17.67
2018-11-29T08:33:06.400Z,17.37
2018-11-29T08:35:34.826Z,17.43
2018-11-29T08:38:03.671Z,17.10
2018-11-29T08:40:31.934Z,17.90
2018-11-29T08:43:00.424Z,16.90
2018-11-29T08:45:29.478Z,17.80
2018-11-29T08:47:57.996Z,17.30
2018-11-29T08:50:26.541Z,17.03
2018-11-29T08:52:55.654Z,17.73
2018-11-29T08:55:24.776Z,17.50
2018-11-29T08:57:53.526Z,16.73
2018-11-29T09:00:22.354Z,17.40
2018-11-29T09:02:50.948Z,16.20
2018-11-29T09:05:19.399Z,16.87
2018-11-29T09:07:48.757Z,16.27
2018-11-29T09:10:18.512Z,15.57
2018-11-29T09:12:47.066Z,16.07
2018-11-29T09:15:16.432Z,14.90
2018-11-29T09:17:44.901Z,16.87
2018-11-29T09:20:20.551Z,15.40
2018-11-29T09:22:49.097Z,16.70
2018-11-29T09:25:18.424Z,15.97
2018-11-29T09:27:47.004Z,15.57
2018-11-29T09:30:17.343Z,15.80
2018-11-29T09:32:46.684Z,16.63
2018-11-29T09:35:15.272Z,16.10
2018-11-29T09:37:43.811Z,17.00
2018-11-29T09:40:14.400Z,16.63
2018-11-29T09:42:43.042Z,16.40
2018-11-29T09:45:16.450Z,15.27
2018-11-29T09:47:45.894Z,14.73
2018-11-29T09:50:15.515Z,16.50
2018-11-29T09:52:44.005Z,15.37
2018-11-29T09:55:14.394Z,14.73
2018-11-29T09:57:43.345Z,14.50
2018-11-29T10:00:16.186Z,15.97
2018-11-29T10:02:48.657Z,15.23
2018-11-29T10:05:17.118Z,14.93
2018-11-29T10:07:45.572Z,15.17
2018-11-29T10:10:14.034Z,15.03
2018-11-29T10:12:42.532Z,16.03
2018-11-29T10:15:12.412Z,14.97
2018-11-29T10:17:40.811Z,15.30
2018-11-29T10:20:15.991Z,13.57
2018-11-29T10:22:44.458Z,14.37
2018-11-29T10:25:14.238Z,14.07
2018-11-29T10:27:44.406Z,14.40
2018-11-29T10:30:15.017Z,14.07
2018-11-29T10:32:43.528Z,15.07
2018-11-29T10:35:11.955Z,14.40
2018-11-29T10:37:40.749Z,15.33
2018-11-29T10:40:10.250Z,15.33
2018-11-29T10:42:38.724Z,13.47
2018-11-29T10:45:12.519Z,15.80
2018-11-29T10:47:41.686Z,13.70
2018-11-29T10:50:11.608Z,14.83
2018-11-29T10:52:40.130Z,13.07
2018-11-29T10:55:14.528Z,13.90
2018-11-29T10:57:43.011Z,13.63
2018-11-29T11:00:22.858Z,14.27
2018-11-29T11:02:56.848Z,14.57
2018-11-29T11:05:25.273Z,14.97
2018-11-29T11:07:53.692Z,14.33
2018-11-29T11:10:22.177Z,13.73
2018-11-29T11:12:50.753Z,12.90
2018-11-29T11:15:19.974Z,14.07
2018-11-29T11:17:48.571Z,13.60
2018-11-29T11:20:16.900Z,12.90
2018-11-29T11:22:45.408Z,13.00
2018-11-29T11:25:13.887Z,13.80
2018-11-29T11:27:42.300Z,13.83
2018-11-29T11:30:13.638Z,13.03
2018-11-29T11:32:42.146Z,13.30
2018-11-29T11:35:11.113Z,12.53
2018-11-29T11:37:39.594Z,12.13
2018-11-29T11:40:10.635Z,13.77
2018-11-29T11:42:39.169Z,12.87
2018-11-29T11:45:09.793Z,13.73
2018-11-29T11:47:38.353Z,13.03
2018-11-29T11:50:10.911Z,13.30
2018-11-29T11:52:39.164Z,12.80
2018-11-29T11:55:08.268Z,12.50
2018-11-29T11:57:36.718Z,13.73
2018-11-29T12:00:11.942Z,13.63
2018-11-29T12:02:40.490Z,13.23
2018-11-29T12:05:10.028Z,13.43
2018-11-29T12:07:38.504Z,12.67
2018-11-29T12:10:09.246Z,13.67
2018-11-29T12:12:37.734Z,12.53
2018-11-29T12:15:10.940Z,13.30
2018-11-29T12:17:40.965Z,11.90
2018-11-29T12:20:12.746Z,12.10
2018-11-29T12:22:41.352Z,12.73
2018-11-29T12:25:12.916Z,12.03
2018-11-29T12:27:41.359Z,11.50
2018-11-29T12:30:14.191Z,12.63
2018-11-29T12:32:42.634Z,12.93
2018-11-29T12:35:11.127Z,12.43
2018-11-29T12:37:39.633Z,12.07
2018-11-29T12:40:12.028Z,12.13
2018-11-29T12:42:40.499Z,11.53
2018-11-29T12:45:11.225Z,10.90
2018-11-29T12:47:39.784Z,11.93
2018-11-29T12:50:16.824Z,10.93
2018-11-29T12:52:45.268Z,12.23
2018-11-29T12:55:14.820Z,10.63
2018-11-29T12:57:43.283Z,10.47
2018-11-29T13:00:17.982Z,10.83
2018-11-29T13:02:49.556Z,11.53
2018-11-29T13:05:18.169Z,10.47
2018-11-29T13:07:46.635Z,10.30
2018-11-29T13:10:16.466Z,10.03
2018-11-29T13:12:44.984Z,11.10
2018-11-29T13:15:16.005Z,10.07
2018-11-29T13:17:44.360Z,10.60
2018-11-29T13:20:14.262Z,10.20
2018-11-29T13:22:42.706Z,9.60
2018-11-29T13:25:14.510Z,10.17
2018-11-29T13:27:43.022Z,10.43
2018-11-29T13:30:13.646Z,10.57
2018-11-29T13:32:42.238Z,9.73
2018-11-29T13:35:15.982Z,10.27
2018-11-29T13:37:47.372Z,10.17
2018-11-29T13:40:15.827Z,10.93
2018-11-29T13:42:44.291Z,9.40
2018-11-29T13:45:12.785Z,10.60
2018-11-29T13:47:41.715Z,10.43
2018-11-29T13:50:12.307Z,10.07
2018-11-29T13:52:40.685Z,10.23
2018-11-29T13:55:10.332Z,10.27
2018-11-29T13:57:38.792Z,9.77
2018-11-29T14:00:16.015Z,11.03
2018-11-29T14:02:46.997Z,9.07
2018-11-29T14:05:13.633Z,9.67
2018-11-29T14:07:42.063Z,10.07
2018-11-29T14:10:14.028Z,10.57
2018-11-29T14:12:42.533Z,9.27
2018-11-29T14:15:12.750Z,9.53
2018-11-29T14:17:41.168Z,9.63
2018-11-29T14:20:10.810Z,9.50
2018-11-29T14:22:39.244Z,9.03
2018-11-29T14:25:10.927Z,8.93
2018-11-29T14:27:40.795Z,9.63
2018-11-29T14:30:26.085Z,9.03
2018-11-29T14:32:55.468Z,8.70
2018-11-29T14:35:23.866Z,9.53
2018-11-29T14:37:52.282Z,9.13
2018-11-29T14:40:22.795Z,9.83
2018-11-29T14:42:51.289Z,9.87
2018-11-29T14:45:22.692Z,8.43
2018-11-29T14:47:51.275Z,8.67
2018-11-29T14:50:24.171Z,9.37
2018-11-29T14:52:52.811Z,8.33
2018-11-29T14:55:21.855Z,8.97
2018-11-29T14:57:49.772Z,9.40
2018-11-29T15:00:18.231Z,9.87
2018-11-29T15:02:46.750Z,8.60
2018-11-29T15:05:18.832Z,9.10
2018-11-29T15:07:47.268Z,8.50
2018-11-29T15:10:15.827Z,8.43
2018-11-29T15:12:44.291Z,8.70
2018-11-29T15:15:13.345Z,8.50
2018-11-29T15:17:42.683Z,10.03
2018-11-29T15:20:15.530Z,9.27
2018-11-29T15:22:43.942Z,9.20
2018-11-29T15:25:12.393Z,8.77
2018-11-29T15:27:40.783Z,8.30
2018-11-29T15:30:12.273Z,9.23
2018-11-29T15:32:40.663Z,8.93
2018-11-29T15:35:09.510Z,9.17
2018-11-29T15:37:37.958Z,9.30
2018-11-29T15:40:09.072Z,8.60
2018-11-29T15:42:37.440Z,9.23
2018-11-29T15:45:08.192Z,9.10
2018-11-29T15:47:36.668Z,8.40
2018-11-29T15:50:07.188Z,8.80
2018-11-29T15:52:35.600Z,9.10
2018-11-29T15:55:04.750Z,8.53
2018-11-29T15:57:34.977Z,8.47
2018-11-29T16:00:01.618Z,9.27
2018-11-29T16:02:30.174Z,9.90
2018-11-29T16:04:58.569Z,7.83
2018-11-29T16:07:27.735Z,8.37
2018-11-29T16:09:56.121Z,7.77
2018-11-29T16:12:24.567Z,8.27
2018-11-29T16:14:52.982Z,8.13
2018-11-29T16:17:21.453Z,8.17
2018-11-29T16:19:49.875Z,8.20
2018-11-29T16:22:18.285Z,7.73
2018-11-29T16:24:46.743Z,7.17
2018-11-29T16:27:15.321Z,8.33
2018-11-29T16:29:43.795Z,7.80
2018-11-29T16:32:12.907Z,7.83
2018-11-29T16:34:41.344Z,8.10
2018-11-29T16:37:09.766Z,8.33
2018-11-29T16:39:38.199Z,7.97
2018-11-29T16:42:06.710Z,8.33
2018-11-29T16:44:35.263Z,7.40
2018-11-29T16:47:03.705Z,7.97
2018-11-29T16:49:32.105Z,8.27
2018-11-29T16:52:00.689Z,7.67
2018-11-29T16:54:29.156Z,7.83
2018-11-29T16:56:57.651Z,7.20
2018-11-29T16:59:26.218Z,7.73
2018-11-29T17:01:54.691Z,7.13
2018-11-29T17:04:23.286Z,8.03
2018-11-29T17:06:51.738Z,7.47
2018-11-29T17:09:20.200Z,7.80
2018-11-29T17:11:50.564Z,7.40
2018-11-29T17:14:19.002Z,7.77
2018-11-29T17:16:47.533Z,7.80
2018-11-29T17:19:16.005Z,7.30
2018-11-29T17:21:44.481Z,7.47
2018-11-29T17:24:13.129Z,7.60
2018-11-29T17:26:41.567Z,7.57
2018-11-29T17:29:10.037Z,7.87
2018-11-29T17:31:38.536Z,6.93
2018-11-29T17:34:07.055Z,7.93
2018-11-29T17:36:35.596Z,6.93
2018-11-29T17:39:05.429Z,7.67
2018-11-29T17:41:34.001Z,6.73
2018-11-29T17:44:02.502Z,6.67
2018-11-29T17:46:30.948Z,7.00
2018-11-29T17:49:00.341Z,7.57
2018-11-29T17:51:28.941Z,7.07
2018-11-29T17:53:57.338Z,6.87
2018-11-29T17:56:25.784Z,7.43
2018-11-29T17:58:54.302Z,6.47
2018-11-29T18:01:22.709Z,7.17
2018-11-29T18:03:51.128Z,6.50
2018-11-29T18:06:19.517Z,6.67
2018-11-29T18:08:47.948Z,7.27
2018-11-29T18:11:16.345Z,7.30
2018-11-29T18:13:45.859Z,6.70
2018-11-29T18:16:14.677Z,6.70
2018-11-29T18:18:43.067Z,6.37
2018-11-29T18:21:11.597Z,5.63
2018-11-29T18:23:40.037Z,5.70
2018-11-29T18:26:08.469Z,5.97
2018-11-29T18:28:36.907Z,5.83
2018-11-29T18:31:05.370Z,5.63
2018-11-29T18:33:33.884Z,6.20
2018-11-29T18:36:02.349Z,5.80
2018-11-29T18:38:30.711Z,5.53
2018-11-29T18:40:59.316Z,5.30
2018-11-29T18:43:27.704Z,5.20
2018-11-29T18:45:56.127Z,5.27
2018-11-29T18:48:24.668Z,6.00
2018-11-29T18:50:53.100Z,5.83
2018-11-29T18:53:21.688Z,5.60
2018-11-29T18:55:50.193Z,6.87
2018-11-29T18:58:18.653Z,5.30
2018-11-29T19:00:47.089Z,5.87
2018-11-29T19:03:15.629Z,5.60
2018-11-29T19:05:44.192Z,5.73
2018-11-29T19:08:12.424Z,6.30
2018-11-29T19:11:11.636Z,6.77
2018-11-29T19:13:40.134Z,6.80
2018-11-29T19:16:09.966Z,6.63
2018-11-29T19:18:38.754Z,6.33
2018-11-29T19:21:07.517Z,7.30
2018-11-29T19:23:35.951Z,6.67
2018-11-29T19:26:06.007Z,7.27
2018-11-29T19:28:34.352Z,5.43
2018-11-29T19:31:03.244Z,7.03
2018-11-29T19:33:31.732Z,6.87
2018-11-29T19:36:00.861Z,7.43
2018-11-29T19:38:30.471Z,6.83
2018-11-29T19:40:59.012Z,6.20
2018-11-29T19:43:34.659Z,6.27
2018-11-29T19:46:03.314Z,6.27
2018-11-29T19:48:32.759Z,6.63
2018-11-29T19:51:01.169Z,6.40
2018-11-29T19:53:32.163Z,6.07
2018-11-29T19:56:01.918Z,6.63
2018-11-29T19:58:30.336Z,6.80
2018-11-29T20:00:58.896Z,6.33
2018-11-29T20:03:27.389Z,6.03
2018-11-29T20:05:55.929Z,7.43
2018-11-29T20:08:24.535Z,6.93
2018-11-29T20:10:53.096Z,7.70
2018-11-29T20:13:21.521Z,7.67
2018-11-29T20:15:52.583Z,7.30
2018-11-29T20:18:21.348Z,6.50
2018-11-29T20:20:50.365Z,7.10
2018-11-29T20:23:18.895Z,7.00
2018-11-29T20:25:48.437Z,7.03
2018-11-29T20:28:16.884Z,7.00
2018-11-29T20:30:45.321Z,6.80
2018-11-29T20:33:13.930Z,7.67
2018-11-29T20:35:42.403Z,6.93
2018-11-29T20:38:11.323Z,6.17
2018-11-29T20:40:41.655Z,6.57
2018-11-29T20:43:10.308Z,6.90
2018-11-29T20:45:53.609Z,6.10
2018-11-29T20:48:26.429Z,6.40
2018-11-29T20:50:56.686Z,7.23
2018-11-29T20:53:32.938Z,6.20
2018-11-29T20:56:02.022Z,6.33
2018-11-29T20:58:30.486Z,7.13
2018-11-29T21:00:59.059Z,6.87
2018-11-29T21:03:27.985Z,6.67
2018-11-29T21:05:56.698Z,5.93
2018-11-29T21:08:25.665Z,6.50
2018-11-29T21:10:54.218Z,6.20
2018-11-29T21:13:23.983Z,6.90
2018-11-29T21:15:52.592Z,6.57
2018-11-29T21:18:21.026Z,6.10
2018-11-29T21:20:49.563Z,6.67
2018-11-29T21:23:19.408Z,6.13
2018-11-29T21:25:47.883Z,6.40
2018-11-29T21:28:16.513Z,6.50
2018-11-29T21:30:44.975Z,6.57
2018-11-29T21:33:13.854Z,6.53
2018-11-29T21:35:42.320Z,5.90
2018-11-29T21:38:12.816Z,6.10
2018-11-29T21:40:42.735Z,6.13
2018-11-29T21:43:11.864Z,5.43
2018-11-29T21:45:40.392Z,5.90
2018-11-29T21:48:09.294Z,5.93
2018-11-29T21:50:37.796Z,5.70
2018-11-29T21:53:06.362Z,5.63
2018-11-29T21:55:34.869Z,5.20
2018-11-29T21:58:03.615Z,4.83
2018-11-29T22:00:33.304Z,4.77
2018-11-29T22:03:01.932Z,5.40
2018-11-29T22:05:30.391Z,5.00
2018-11-29T22:07:58.874Z,4.93
2018-11-29T22:10:27.317Z,5.37
2018-11-29T22:12:56.104Z,4.87
2018-11-29T22:15:24.722Z,5.27
2018-11-29T22:18:30.262Z,5.70
2018-11-29T22:21:02.126Z,5.67
2018-11-29T22:23:31.424Z,5.33
2018-11-29T22:26:01.029Z,5.90
2018-11-29T22:28:30.213Z,5.20
2018-11-29T22:30:59.690Z,6.60
2018-11-29T22:33:28.547Z,5.77
2018-11-29T22:35:57.225Z,6.00
2018-11-29T22:38:26.344Z,6.63
2018-11-29T22:40:54.897Z,6.13
2018-11-29T22:43:23.395Z,5.70
2018-11-29T22:45:51.958Z,6.50
2018-11-29T22:48:20.469Z,5.90
2018-11-29T22:50:48.994Z,6.23
2018-11-29T22:53:17.952Z,7.60
2018-11-29T22:55:46.497Z,7.27
2018-11-29T22:58:15.025Z,6.27
2018-11-29T23:00:48.681Z,5.80
2018-11-29T23:03:17.638Z,6.57
2018-11-29T23:05:46.189Z,7.50
2018-11-29T23:08:14.677Z,7.47
2018-11-29T23:10:43.148Z,6.70
2018-11-29T23:13:11.626Z,6.97
2018-11-29T23:15:40.222Z,7.37
2018-11-29T23:18:09.010Z,7.73
2018-11-29T23:20:38.252Z,6.93
2018-11-29T23:23:06.695Z,7.03
2018-11-29T23:25:35.763Z,6.93
2018-11-29T23:28:05.086Z,7.40
2018-11-29T23:30:33.859Z,7.17
2018-11-29T23:33:02.343Z,7.33
2018-11-29T23:35:30.867Z,7.47
2018-11-29T23:37:59.355Z,8.63
2018-11-29T23:40:27.834Z,8.40
2018-11-29T23:42:56.353Z,8.40
2018-11-29T23:45:24.731Z,7.53
2018-11-29T23:47:53.239Z,7.20
2018-11-29T23:50:21.697Z,7.87
2018-11-29T23:52:50.165Z,8.27
2018-11-29T23:55:20.528Z,8.87
2018-11-29T23:57:48.965Z,9.20
